Tümü
Cooma-Snowy Mountains Airport (Cooma, New South Wales) OOM Hava Durumu
|
Cooma, New South Wales (OOM / YCOM)
Açık
Hafif rüzgârlı |
|
14 °C |
OOM Terminal Alan Tahmini
| Here is the undecoded forecast: 2026/08/31 18:06 YCOM 311806Z 3120/0108 33008KT CAVOK FM010000 31015G25KT CAVOK RMK FM312000 MOD TURB BLW 3000FT T 04 12 16 16 Q 1024 1023 1021 1018 |
Yakın zamandaki OOM METAR geçmişi
| Date | Time (AEST) | Flight Rules | Wind Dir. | Speed | Type | Height AGL (ft) | Visibility | Temp (°C) | Temp (°F) | Dew Point (°C) | Dew Point (°F) | Rel. Humid. | Pressure | Density Altitude | Remarks |
|---|---|---|---|---|---|---|---|---|---|---|---|---|---|---|---|
| 01-Eyl | 17:00 | VFR | 310° | 10 kt | 10000 meters | 14° | 57° | 3° | 37° | 47% | 1018 mb | 3.557 ft | Wind gusting to 20 KT | ||
| 01-Eyl | 16:00 | VFR | 300° | 17 kt | 10000 meters | 15° | 59° | 1° | 33° | 39% | 1019 mb | 3.648 ft | |||
| 01-Eyl | 15:00 | VFR | 290° | 15 kt | 10000 meters | 16° | 60° | 2° | 35° | 39% | 1019 mb | 3.768 ft | |||
| 01-Eyl | 14:00 | VFR | 290° | 16 kt | 10000 meters | 17° | 62° | 1° | 33° | 34% | 1019 mb | 3.888 ft | |||
| 01-Eyl | 13:02 | VFR | 290° | 15 kt | 10000 meters | 18° | 64° | 2° | 35° | 34% | 1020 mb | 3.978 ft | Wind gusting to 25 KT | ||
| 01-Eyl | 12:06 | VFR | 300° | 11 kt | 10000 meters | 17° | 62° | 1° | 33° | 34% | 1021 mb | 3.829 ft | |||
| 01-Eyl | 11:00 | VFR | 310° | 18 kt | 10000 meters | 16° | 60° | 1° | 33° | 36% | 1022 mb | 3.679 ft | Wind gusting to 28 KT | ||
| 01-Eyl | 10:00 | VFR | 300° | 12 kt | 10000 meters | 16° | 60° | 0° | 32° | 34% | 1023 mb | 3.650 ft | |||
| 01-Eyl | 09:00 | VFR | 320° | 12 kt | 10000 meters | 14° | 57° | 1° | 33° | 41% | 1024 mb | 3.380 ft | |||
| 01-Eyl | 08:00 | VFR | 330° | 6 kt | 10000 meters | 13° | 55° | -1° | 30° | 38% | 1024 mb | 3.260 ft | |||
| 01-Eyl | 07:00 | VFR | 80° | 7 kt | 10000 meters | 7° | 44° | 1° | 33° | 66% | 1024 mb | 2.540 ft | |||
| 01-Eyl | 06:00 | VFR | 60° | 10 kt | 10000 meters | 6° | 42° | 2° | 35° | 75% | 1024 mb | 2.420 ft | |||
| 01-Eyl | 05:00 | VFR | 50° | 4 kt | 10000 meters | 3° | 37° | -1° | 30° | 75% | 1024 mb | 2.060 ft | |||
| 01-Eyl | 04:00 | VFR | 50° | 7 kt | 10000 meters | 0° | 32° | -2° | 28° | 86% | 1025 mb | 1.671 ft | |||
| 01-Eyl | 03:00 | VFR | 40° | 3 kt | 10000 meters | -1° | 30° | -1° | 30° | 100% | 1025 mb | 1.551 ft | |||
| 01-Eyl | 02:00 | VFR | 10° | 2 kt | 10000 meters | -1° | 30° | -1° | 30° | 100% | 1026 mb | 1.521 ft | |||
| 01-Eyl | 01:00 | VFR | Calm | 10000 meters | 1° | 33° | 1° | 33° | 100% | 1027 mb | 1.731 ft | ||||
| 01-Eyl | 00:00 | VFR | 10° | 3 kt | 10000 meters | 1° | 33° | -1° | 30° | 86% | 1028 mb | 1.702 ft | |||
| 31-Ağu | 23:00 | VFR | 10° | 3 kt | 10000 meters | 1° | 33° | -1° | 30° | 86% | 1028 mb | 1.702 ft | |||
| 31-Ağu | 22:00 | VFR | Calm | 10000 meters | 2° | 35° | -1° | 30° | 80% | 1029 mb | 1.792 ft | ||||
| 31-Ağu | 21:00 | VFR | Calm | 10000 meters | 4° | 39° | 0° | 32° | 75% | 1029 mb | 2.032 ft | ||||
| 31-Ağu | 20:00 | VFR | 350° | 3 kt | 10000 meters | 8° | 46° | 0° | 32° | 57% | 1029 mb | 2.512 ft | |||
| 31-Ağu | 19:00 | VFR | 200° | 5 kt | 10000 meters | 7° | 44° | 0° | 32° | 61% | 1028 mb | 2.422 ft | |||
| 31-Ağu | 18:00 | VFR | 270° | 6 kt | 10000 meters | 10° | 50° | 1° | 33° | 53% | 1028 mb | 2.782 ft |
Giriş
| Tarayıcınız desteklenmiyor. tarayıcınızı yükseltin |
